Time;durP1;ratioP1;P1;durP2;ratioP2;P2;SDS_P1;SDS_P2;PMS_P1;PMS_P2;Temp;Humidity;BMP_temperature;BMP_pressure;BME280_temperature;BME280_humidity;BME280_pressure;Samples;Min_cycle;Max_cycle;Signal;HPM_P1;HPM_P2
2023/03/08 00:00:16;;;;;;;0.00;0.00;;;1.10;82.70;;;;;;5069645;28;20037;-68
2023/03/08 00:02:42;;;;;;;0.00;0.00;;;1.00;82.40;;;;;;5067692;28;20551;-68
2023/03/08 00:05:09;;;;;;;0.00;0.00;;;1.00;82.50;;;;;;5069935;28;20128;-67
2023/03/08 00:07:35;;;;;;;0.10;0.10;;;1.10;82.60;;;;;;5070129;28;20044;-68
2023/03/08 00:10:00;;;;;;;0.00;0.00;;;1.00;82.50;;;;;;5069533;28;20125;-67
2023/03/08 00:12:27;;;;;;;0.03;0.03;;;1.00;82.60;;;;;;5075978;28;20437;-68
2023/03/08 00:14:53;;;;;;;0.00;0.00;;;1.00;82.70;;;;;;5073132;28;20040;-68
2023/03/08 00:17:18;;;;;;;0.00;0.00;;;1.00;82.70;;;;;;5075196;28;20105;-67
2023/03/08 00:19:44;;;;;;;0.00;0.00;;;1.00;82.80;;;;;;5064241;28;20075;-67
2023/03/08 00:22:10;;;;;;;0.00;0.00;;;1.00;82.80;;;;;;5073240;28;20044;-68
2023/03/08 00:24:36;;;;;;;0.00;0.00;;;1.10;82.90;;;;;;5075183;28;20044;-68
2023/03/08 00:27:02;;;;;;;0.00;0.00;;;1.00;82.90;;;;;;5069830;28;20123;-68
2023/03/08 00:29:28;;;;;;;0.10;0.10;;;1.00;82.80;;;;;;5074447;28;20174;-67
2023/03/08 00:31:53;;;;;;;0.10;0.10;;;1.00;82.90;;;;;;5069062;28;20119;-68
2023/03/08 00:34:19;;;;;;;0.10;0.10;;;1.10;82.90;;;;;;5068621;28;20056;-68
2023/03/08 00:36:44;;;;;;;0.00;0.00;;;1.10;82.90;;;;;;5064937;28;20466;-68
2023/03/08 00:39:11;;;;;;;0.03;0.03;;;1.10;82.90;;;;;;5071743;28;20040;-68
2023/03/08 00:41:37;;;;;;;0.00;0.00;;;1.10;82.80;;;;;;5068905;28;20884;-68
2023/03/08 00:44:03;;;;;;;0.00;0.00;;;1.20;82.80;;;;;;5069578;28;20048;-68
2023/03/08 00:46:29;;;;;;;0.00;0.00;;;1.20;82.70;;;;;;5069254;28;20044;-68
2023/03/08 00:48:54;;;;;;;0.10;0.10;;;1.20;82.60;;;;;;5069107;28;20119;-67
2023/03/08 00:51:20;;;;;;;0.00;0.00;;;1.30;82.70;;;;;;5069031;28;20037;-68
2023/03/08 00:53:46;;;;;;;0.00;0.00;;;1.30;82.70;;;;;;5074010;28;20040;-68
2023/03/08 00:56:12;;;;;;;0.00;0.00;;;1.30;82.50;;;;;;5073313;28;20047;-68
2023/03/08 00:58:39;;;;;;;0.00;0.00;;;1.30;82.50;;;;;;5069119;28;20037;-68
2023/03/08 01:01:07;;;;;;;0.00;0.00;;;1.20;81.90;;;;;;5072700;28;20036;-68
2023/03/08 01:03:33;;;;;;;0.00;0.00;;;1.20;82.20;;;;;;5057879;28;20052;-68
2023/03/08 01:06:06;;;;;;;0.00;0.00;;;1.20;82.20;;;;;;5060731;28;20036;-68
2023/03/08 01:08:32;;;;;;;0.00;0.00;;;1.20;82.20;;;;;;5068652;28;20151;-67
2023/03/08 01:10:59;;;;;;;0.00;0.00;;;1.10;82.10;;;;;;5068139;28;20127;-68
2023/03/08 01:13:30;;;;;;;0.10;0.10;;;1.10;82.20;;;;;;5051389;28;20048;-67
2023/03/08 01:15:56;;;;;;;0.00;0.00;;;1.00;82.40;;;;;;5067577;28;20037;-68
2023/03/08 01:18:22;;;;;;;0.00;0.00;;;1.10;82.40;;;;;;5068759;28;20386;-68
2023/03/08 01:20:59;;;;;;;0.30;0.30;;;1.00;82.30;;;;;;5068453;28;20051;-68
2023/03/08 01:23:25;;;;;;;0.00;0.00;;;1.00;82.40;;;;;;5068869;28;20040;-68
2023/03/08 01:26:18;;;;;;;0.00;0.00;;;1.00;82.40;;;;;;5067864;28;20068;-68
2023/03/08 01:28:44;;;;;;;0.00;0.00;;;0.90;82.30;;;;;;5065470;28;20044;-68
2023/03/08 01:31:19;;;;;;;0.00;0.00;;;1.00;82.40;;;;;;5050326;28;20544;-68
2023/03/08 01:33:45;;;;;;;0.00;0.00;;;0.90;82.40;;;;;;5069317;28;20082;-67
2023/03/08 01:36:14;;;;;;;0.00;0.00;;;0.90;82.40;;;;;;5067693;28;20048;-68
2023/03/08 01:38:39;;;;;;;0.00;0.00;;;0.90;82.30;;;;;;5068758;28;20153;-68
2023/03/08 01:41:07;;;;;;;0.00;0.00;;;1.00;82.20;;;;;;5069210;28;20068;-68
2023/03/08 01:43:36;;;;;;;0.10;0.10;;;1.00;82.10;;;;;;5053753;28;20137;-68
2023/03/08 01:46:21;;;;;;;0.00;0.00;;;0.90;81.90;;;;;;5071738;28;20078;-68
2023/03/08 01:49:00;;;;;;;0.00;0.00;;;1.00;82.10;;;;;;5072810;28;20404;-67
2023/03/08 01:51:33;;;;;;;0.00;0.00;;;0.90;82.40;;;;;;5073177;28;20048;-68
2023/03/08 01:54:04;;;;;;;0.00;0.00;;;0.80;83.00;;;;;;5079952;28;20260;-68
2023/03/08 01:56:30;;;;;;;0.00;0.00;;;0.80;83.10;;;;;;5076126;28;20051;-69
2023/03/08 01:58:56;;;;;;;0.00;0.00;;;0.80;83.50;;;;;;5082367;28;20037;-68
2023/03/08 02:01:22;;;;;;;0.00;0.00;;;0.80;83.70;;;;;;5071284;28;20048;-67
2023/03/08 02:03:48;;;;;;;0.00;0.00;;;0.80;83.70;;;;;;5072550;28;20051;-68
2023/03/08 02:06:15;;;;;;;0.00;0.00;;;0.80;83.80;;;;;;5072204;28;20040;-67
2023/03/08 02:08:41;;;;;;;0.00;0.00;;;0.80;84.20;;;;;;5084095;28;20044;-68
2023/03/08 02:11:08;;;;;;;13.05;2.42;;;0.70;84.30;;;;;;5077024;28;20093;-67
2023/03/08 02:13:33;;;;;;;0.00;0.00;;;0.70;84.50;;;;;;5067885;28;20048;-67
2023/03/08 02:16:01;;;;;;;0.00;0.00;;;0.70;84.50;;;;;;5071967;28;20105;-67
2023/03/08 02:18:27;;;;;;;0.00;0.00;;;0.80;84.80;;;;;;5072007;28;20074;-68
2023/03/08 02:20:53;;;;;;;0.08;0.08;;;0.70;84.90;;;;;;5071257;28;20056;-68
2023/03/08 02:23:21;;;;;;;0.00;0.00;;;0.70;85.10;;;;;;5056813;28;20052;-68
2023/03/08 02:26:01;;;;;;;0.03;0.03;;;0.70;85.30;;;;;;5071781;28;20102;-68
2023/03/08 02:28:28;;;;;;;0.00;0.00;;;0.80;85.50;;;;;;5037662;28;20055;-68
2023/03/08 02:30:55;;;;;;;0.00;0.00;;;0.80;85.70;;;;;;5071861;28;20512;-68
2023/03/08 02:33:21;;;;;;;0.00;0.00;;;0.80;85.70;;;;;;5071562;28;20513;-68
2023/03/08 02:35:46;;;;;;;0.00;0.00;;;0.80;85.70;;;;;;5074456;28;20390;-67
2023/03/08 02:38:14;;;;;;;0.00;0.00;;;0.80;85.70;;;;;;5084145;28;20078;-67
2023/03/08 02:40:40;;;;;;;0.00;0.00;;;0.90;85.60;;;;;;5071148;28;20036;-67
2023/03/08 02:43:06;;;;;;;0.00;0.00;;;0.90;85.60;;;;;;5037358;28;20044;-67
2023/03/08 02:45:32;;;;;;;0.10;0.10;;;0.90;85.60;;;;;;5054575;28;20598;-67
2023/03/08 02:47:59;;;;;;;0.00;0.00;;;1.00;85.60;;;;;;5078885;28;20115;-67
2023/03/08 02:50:25;;;;;;;0.00;0.00;;;1.00;85.50;;;;;;5050120;28;20045;-68
2023/03/08 02:52:51;;;;;;;0.00;0.00;;;1.00;85.50;;;;;;5074906;28;20043;-67
2023/03/08 02:55:16;;;;;;;0.00;0.00;;;1.00;85.40;;;;;;5069764;28;20036;-67
2023/03/08 02:57:42;;;;;;;0.00;0.00;;;1.00;85.40;;;;;;5071156;28;20044;-67
2023/03/08 03:00:09;;;;;;;0.00;0.00;;;1.00;85.40;;;;;;5053603;28;20097;-67
2023/03/08 03:02:35;;;;;;;0.00;0.00;;;1.00;85.30;;;;;;5073655;28;20040;-67
2023/03/08 03:05:05;;;;;;;0.00;0.00;;;1.00;85.20;;;;;;5082716;28;20049;-67
2023/03/08 03:07:34;;;;;;;0.03;0.03;;;1.00;85.10;;;;;;5053082;28;20109;-67
2023/03/08 03:10:00;;;;;;;0.00;0.00;;;1.00;85.10;;;;;;5072072;28;20039;-68
2023/03/08 03:12:25;;;;;;;0.00;0.00;;;1.00;85.10;;;;;;5070557;28;20033;-67
2023/03/08 03:14:51;;;;;;;0.00;0.00;;;1.00;85.10;;;;;;5071472;28;20052;-67
2023/03/08 03:17:16;;;;;;;0.00;0.00;;;1.00;85.10;;;;;;5070345;28;20037;-67
2023/03/08 03:19:42;;;;;;;0.00;0.00;;;1.00;85.10;;;;;;5070731;28;20114;-67
2023/03/08 03:22:07;;;;;;;0.00;0.00;;;1.00;85.00;;;;;;5070880;28;20401;-67
2023/03/08 03:24:33;;;;;;;0.00;0.00;;;0.90;85.00;;;;;;5070852;28;20041;-67
2023/03/08 03:26:59;;;;;;;0.00;0.00;;;0.90;85.00;;;;;;5070673;28;20127;-68
2023/03/08 03:29:24;;;;;;;0.00;0.00;;;1.00;85.10;;;;;;5035980;28;20040;-67
2023/03/08 03:31:50;;;;;;;0.05;0.05;;;1.00;85.00;;;;;;5070350;28;20122;-67
2023/03/08 03:34:15;;;;;;;0.00;0.00;;;1.00;85.00;;;;;;5052557;28;20037;-67
2023/03/08 03:36:41;;;;;;;0.00;0.00;;;1.00;84.90;;;;;;5051980;28;20571;-67
2023/03/08 03:39:06;;;;;;;0.00;0.00;;;0.90;84.80;;;;;;5070608;28;20378;-67
2023/03/08 03:41:32;;;;;;;0.00;0.00;;;0.90;84.80;;;;;;5070246;28;20048;-67
2023/03/08 03:43:58;;;;;;;0.00;0.00;;;1.00;84.90;;;;;;5082097;28;20130;-66
2023/03/08 03:46:24;;;;;;;0.00;0.00;;;1.00;84.90;;;;;;5070492;28;20040;-66
2023/03/08 03:48:50;;;;;;;0.00;0.00;;;0.90;84.90;;;;;;5073127;28;20082;-67
2023/03/08 03:51:18;;;;;;;0.00;0.00;;;1.00;84.80;;;;;;5070319;28;20079;-67
2023/03/08 03:53:44;;;;;;;0.10;0.10;;;1.00;84.80;;;;;;5070569;28;20056;-67
2023/03/08 03:56:21;;;;;;;0.00;0.00;;;1.00;84.80;;;;;;5070375;28;20116;-67
2023/03/08 03:58:47;;;;;;;0.00;0.00;;;1.00;84.80;;;;;;5069665;28;20040;-67
2023/03/08 04:01:19;;;;;;;0.00;0.00;;;1.00;84.80;;;;;;5061883;28;20416;-67
2023/03/08 04:03:46;;;;;;;0.00;0.00;;;0.90;84.70;;;;;;5070061;28;20071;-67
2023/03/08 04:06:24;;;;;;;0.00;0.00;;;1.00;84.70;;;;;;5073915;28;20154;-67
2023/03/08 04:08:54;;;;;;;0.00;0.00;;;1.00;84.70;;;;;;5069663;28;20541;-67
2023/03/08 04:11:24;;;;;;;0.00;0.00;;;0.90;84.80;;;;;;5074686;28;20044;-67
2023/03/08 04:13:50;;;;;;;0.00;0.00;;;0.90;84.70;;;;;;5069835;28;20032;-67
2023/03/08 04:16:18;;;;;;;0.00;0.00;;;0.90;84.80;;;;;;5069764;28;20040;-67
2023/03/08 04:18:44;;;;;;;0.00;0.00;;;0.90;84.80;;;;;;5069400;28;20092;-67
2023/03/08 04:21:10;;;;;;;0.00;0.00;;;1.00;84.70;;;;;;5070001;28;20084;-67
2023/03/08 04:23:36;;;;;;;0.00;0.00;;;0.90;84.60;;;;;;5080365;28;20055;-67
2023/03/08 04:26:03;;;;;;;0.00;0.00;;;0.90;84.60;;;;;;5089374;28;20040;-66
2023/03/08 04:28:29;;;;;;;0.00;0.00;;;0.90;84.60;;;;;;5069629;28;20051;-67
2023/03/08 04:30:55;;;;;;;0.00;0.00;;;0.90;84.70;;;;;;5055756;28;20044;-67
2023/03/08 04:33:21;;;;;;;0.00;0.00;;;0.90;84.80;;;;;;5069845;28;20048;-67
2023/03/08 04:35:47;;;;;;;0.00;0.00;;;0.90;84.80;;;;;;5070526;28;20117;-67
2023/03/08 04:38:13;;;;;;;0.00;0.00;;;0.80;84.70;;;;;;5050233;28;20052;-67
2023/03/08 04:41:20;;;;;;;0.10;0.10;;;0.80;84.70;;;;;;5051751;28;20048;-67
2023/03/08 04:43:28;;;;;;;0.00;0.00;;;0.90;84.80;;;;;;5057309;28;20554;-66
2023/03/08 04:45:53;;;;;;;0.00;0.00;;;0.90;84.70;;;;;;5051696;28;20040;-67
2023/03/08 04:48:19;;;;;;;0.00;0.00;;;0.90;84.70;;;;;;5079094;28;20062;-67
2023/03/08 04:50:54;;;;;;;0.00;0.00;;;0.80;84.70;;;;;;5069742;28;20044;-67
2023/03/08 04:53:21;;;;;;;0.03;0.03;;;0.80;84.70;;;;;;5068821;28;20063;-67
2023/03/08 04:55:47;;;;;;;0.00;0.00;;;0.70;84.60;;;;;;5069155;28;20066;-66
2023/03/08 04:58:13;;;;;;;0.10;0.10;;;0.80;84.60;;;;;;5069043;28;20075;-67
2023/03/08 05:00:39;;;;;;;0.00;0.00;;;0.70;84.60;;;;;;5048432;28;20036;-67
2023/03/08 05:03:05;;;;;;;0.00;0.00;;;0.70;84.50;;;;;;5070190;28;20838;-66
2023/03/08 05:05:31;;;;;;;0.00;0.00;;;0.70;84.50;;;;;;5068545;28;20048;-67
2023/03/08 05:07:58;;;;;;;0.00;0.00;;;0.70;84.30;;;;;;5068613;28;20033;-67
2023/03/08 05:10:24;;;;;;;0.00;0.00;;;0.60;84.40;;;;;;5068516;28;20431;-66
2023/03/08 05:12:50;;;;;;;0.10;0.10;;;0.60;84.10;;;;;;5069172;28;20123;-67
2023/03/08 05:15:15;;;;;;;0.00;0.00;;;0.50;84.20;;;;;;5068871;28;20040;-67
2023/03/08 05:17:41;;;;;;;0.10;0.10;;;0.40;84.30;;;;;;5050216;28;20041;-67
2023/03/08 05:20:08;;;;;;;0.00;0.00;;;0.50;84.50;;;;;;5067663;28;20037;-66
2023/03/08 05:22:33;;;;;;;0.00;0.00;;;0.40;84.60;;;;;;5069073;28;20052;-67
2023/03/08 05:24:59;;;;;;;0.00;0.00;;;0.50;84.80;;;;;;5068665;28;20525;-67
2023/03/08 05:27:24;;;;;;;0.00;0.00;;;0.40;84.80;;;;;;5069057;28;20048;-66
2023/03/08 05:29:53;;;;;;;0.00;0.00;;;0.50;84.90;;;;;;5051078;28;20047;-67
2023/03/08 05:32:18;;;;;;;0.00;0.00;;;0.50;85.00;;;;;;5070345;28;20092;-67
2023/03/08 05:34:44;;;;;;;0.00;0.00;;;0.50;85.20;;;;;;5034345;28;20768;-67
2023/03/08 05:37:10;;;;;;;0.00;0.00;;;0.60;85.30;;;;;;5068185;28;20055;-67
2023/03/08 05:39:35;;;;;;;0.00;0.00;;;0.60;85.30;;;;;;5067759;28;20140;-67
2023/03/08 05:42:01;;;;;;;0.00;0.00;;;0.60;85.30;;;;;;5064681;28;20048;-67
2023/03/08 05:44:26;;;;;;;0.00;0.00;;;0.60;85.40;;;;;;5055667;28;20190;-68
2023/03/08 05:46:52;;;;;;;0.00;0.00;;;0.70;85.50;;;;;;5058920;28;20033;-67
2023/03/08 05:49:18;;;;;;;0.00;0.00;;;0.70;85.50;;;;;;5060824;28;20068;-67
2023/03/08 05:51:43;;;;;;;0.10;0.10;;;0.80;85.50;;;;;;5053063;28;20043;-67
2023/03/08 05:54:09;;;;;;;0.00;0.00;;;0.80;85.50;;;;;;5067711;28;20531;-67
2023/03/08 05:56:34;;;;;;;0.00;0.00;;;0.90;85.50;;;;;;5066015;28;20048;-67
2023/03/08 05:59:00;;;;;;;0.00;0.00;;;0.80;85.50;;;;;;5043447;28;20406;-67
2023/03/08 06:01:27;;;;;;;0.00;0.00;;;0.70;85.40;;;;;;5066301;28;20072;-67
2023/03/08 06:03:55;;;;;;;0.00;0.00;;;0.80;85.30;;;;;;5084665;28;20040;-67
2023/03/08 06:06:23;;;;;;;0.00;0.00;;;0.70;85.30;;;;;;5073600;28;20052;-67
2023/03/08 06:08:49;;;;;;;0.00;0.00;;;0.70;85.20;;;;;;5047856;28;20472;-67
2023/03/08 06:11:15;;;;;;;0.00;0.00;;;0.70;85.30;;;;;;5032079;28;20127;-67
2023/03/08 06:13:41;;;;;;;0.00;0.00;;;0.70;85.20;;;;;;5081247;28;20055;-68
2023/03/08 06:16:07;;;;;;;0.00;0.00;;;0.70;85.30;;;;;;5065789;28;20123;-67
2023/03/08 06:18:35;;;;;;;0.00;0.00;;;0.70;85.20;;;;;;5051872;28;20052;-67
2023/03/08 06:21:03;;;;;;;0.00;0.00;;;0.70;85.00;;;;;;5065738;28;20055;-67
2023/03/08 06:23:30;;;;;;;0.00;0.00;;;0.60;84.90;;;;;;5066440;28;20056;-67
2023/03/08 06:25:56;;;;;;;0.10;0.10;;;0.60;85.00;;;;;;5065990;28;20051;-67
2023/03/08 06:28:23;;;;;;;0.00;0.00;;;0.60;85.00;;;;;;5065929;28;20045;-67
2023/03/08 06:30:49;;;;;;;0.00;0.00;;;0.60;85.10;;;;;;5072288;28;20051;-67
2023/03/08 06:33:20;;;;;;;0.00;0.00;;;0.60;85.20;;;;;;5070005;28;20085;-66
2023/03/08 06:36:07;;;;;;;0.00;0.00;;;0.60;85.30;;;;;;5072016;28;20040;-67
2023/03/08 06:38:35;;;;;;;0.00;0.00;;;0.60;85.30;;;;;;5065106;28;20136;-67
2023/03/08 06:41:01;;;;;;;0.00;0.00;;;0.60;85.30;;;;;;5067018;28;20765;-68
2023/03/08 06:43:27;;;;;;;0.00;0.00;;;0.60;85.30;;;;;;5053395;28;20052;-68
2023/03/08 06:45:53;;;;;;;0.00;0.00;;;0.60;85.30;;;;;;5068115;28;20043;-67
2023/03/08 06:48:19;;;;;;;0.10;0.10;;;0.60;85.40;;;;;;5050909;28;20059;-67
2023/03/08 06:50:45;;;;;;;0.08;0.08;;;0.70;85.50;;;;;;5034984;28;20135;-67
2023/03/08 06:53:11;;;;;;;0.00;0.00;;;0.70;85.60;;;;;;5068404;28;20080;-66
2023/03/08 06:55:38;;;;;;;0.00;0.00;;;0.70;85.60;;;;;;5070114;28;20049;-67
2023/03/08 06:58:05;;;;;;;0.10;0.10;;;0.80;85.70;;;;;;5070312;28;20059;-67
2023/03/08 07:00:31;;;;;;;0.00;0.00;;;0.80;85.80;;;;;;5033542;28;20052;-67
2023/03/08 07:02:57;;;;;;;0.00;0.00;;;0.90;85.80;;;;;;5069323;28;20079;-67
2023/03/08 07:05:23;;;;;;;0.00;0.00;;;1.00;85.70;;;;;;5071031;28;20072;-69
2023/03/08 07:07:49;;;;;;;0.00;0.00;;;1.00;85.80;;;;;;5070488;28;20536;-66
2023/03/08 07:10:16;;;;;;;0.00;0.00;;;1.10;85.80;;;;;;5071069;28;20059;-68
2023/03/08 07:12:47;;;;;;;0.00;0.00;;;1.10;85.90;;;;;;5069551;28;20044;-68
2023/03/08 07:15:14;;;;;;;0.00;0.00;;;1.20;85.90;;;;;;5074720;28;20043;-68
2023/03/08 07:17:44;;;;;;;0.00;0.00;;;1.20;85.90;;;;;;5073253;28;20120;-68
2023/03/08 07:20:12;;;;;;;0.00;0.00;;;1.20;86.00;;;;;;5053998;28;20127;-66
2023/03/08 07:22:38;;;;;;;0.00;0.00;;;1.30;85.90;;;;;;5068154;28;20040;-68
2023/03/08 07:25:04;;;;;;;0.00;0.00;;;1.40;86.00;;;;;;5069162;28;20119;-68
2023/03/08 07:27:29;;;;;;;0.00;0.00;;;1.50;86.00;;;;;;5069769;28;20167;-68
2023/03/08 07:29:55;;;;;;;0.00;0.00;;;1.60;85.90;;;;;;5069714;28;20485;-68
2023/03/08 07:32:22;;;;;;;0.00;0.00;;;1.60;85.90;;;;;;5035752;28;20052;-68
2023/03/08 07:34:48;;;;;;;0.00;0.00;;;1.70;85.80;;;;;;5069533;28;20418;-68
2023/03/08 07:37:14;;;;;;;0.00;0.00;;;1.60;85.60;;;;;;5069721;28;20055;-67
2023/03/08 07:39:41;;;;;;;0.00;0.00;;;1.60;85.50;;;;;;5069318;28;20127;-68
2023/03/08 07:42:08;;;;;;;0.00;0.00;;;1.60;85.40;;;;;;5069371;28;20044;-68
2023/03/08 07:44:36;;;;;;;0.00;0.00;;;1.60;85.40;;;;;;5067554;28;20057;-68
2023/03/08 07:47:02;;;;;;;0.00;0.00;;;1.60;85.40;;;;;;5069104;28;20048;-68
2023/03/08 07:49:27;;;;;;;0.00;0.00;;;1.60;85.50;;;;;;5064408;28;20041;-71
2023/03/08 07:51:53;;;;;;;0.00;0.00;;;1.70;85.60;;;;;;5022802;28;20547;-65
2023/03/08 07:54:19;;;;;;;0.10;0.10;;;1.70;85.70;;;;;;5069340;28;20083;-66
2023/03/08 07:56:44;;;;;;;0.00;0.00;;;1.80;85.70;;;;;;5069393;28;20044;-66
2023/03/08 07:59:10;;;;;;;0.00;0.00;;;1.80;85.60;;;;;;5070286;28;20509;-66
2023/03/08 08:01:36;;;;;;;0.00;0.00;;;1.80;85.60;;;;;;5069700;28;20048;-66
2023/03/08 08:04:03;;;;;;;0.10;0.10;;;1.90;85.60;;;;;;5069900;28;20849;-65
2023/03/08 08:06:29;;;;;;;0.00;0.00;;;1.90;85.70;;;;;;5069927;28;20160;-64
2023/03/08 08:08:55;;;;;;;0.45;0.45;;;1.90;85.60;;;;;;5062010;28;20076;-65
2023/03/08 08:11:21;;;;;;;0.00;0.00;;;2.00;85.60;;;;;;5060208;28;20155;-66
2023/03/08 08:13:47;;;;;;;0.00;0.00;;;2.20;86.60;;;;;;5067572;28;20128;-66
2023/03/08 08:16:15;;;;;;;0.00;0.00;;;2.40;86.20;;;;;;5060886;28;20170;-66
2023/03/08 08:18:41;;;;;;;0.00;0.00;;;2.40;86.00;;;;;;5059607;28;20044;-66
2023/03/08 08:21:12;;;;;;;0.00;0.00;;;2.50;85.90;;;;;;5068076;28;20048;-65
2023/03/08 08:23:39;;;;;;;0.00;0.00;;;2.50;85.80;;;;;;5063216;28;20118;-65
2023/03/08 08:26:10;;;;;;;0.00;0.00;;;2.50;85.60;;;;;;5056296;28;20051;-65
2023/03/08 08:28:38;;;;;;;0.10;0.10;;;2.60;85.60;;;;;;5063282;28;20121;-65
2023/03/08 08:31:13;;;;;;;0.00;0.00;;;2.60;85.50;;;;;;5058623;28;20394;-65
2023/03/08 08:33:39;;;;;;;0.00;0.00;;;2.60;85.50;;;;;;5069714;28;20044;-65
2023/03/08 08:36:08;;;;;;;0.00;0.00;;;2.70;85.40;;;;;;5050457;28;20128;-65
2023/03/08 08:38:33;;;;;;;0.00;0.00;;;2.70;85.40;;;;;;5068894;28;20040;-65
2023/03/08 08:41:00;;;;;;;0.00;0.00;;;2.70;85.30;;;;;;5068985;28;20043;-65
2023/03/08 08:43:27;;;;;;;0.00;0.00;;;2.70;85.20;;;;;;5069282;28;20045;-65
2023/03/08 08:45:55;;;;;;;0.00;0.00;;;2.80;85.10;;;;;;5069024;28;20041;-65
2023/03/08 08:48:22;;;;;;;0.00;0.00;;;2.80;85.20;;;;;;5051446;28;20051;-65
2023/03/08 08:50:48;;;;;;;0.00;0.00;;;2.90;85.20;;;;;;5068685;28;20119;-65
2023/03/08 08:53:14;;;;;;;0.00;0.00;;;2.90;85.10;;;;;;5068004;28;20187;-66
2023/03/08 08:55:39;;;;;;;0.00;0.00;;;3.00;85.10;;;;;;5068616;28;20040;-65
2023/03/08 08:58:05;;;;;;;0.00;0.00;;;3.00;85.10;;;;;;5072786;28;20046;-65
2023/03/08 09:00:32;;;;;;;0.00;0.00;;;3.00;84.90;;;;;;5075550;28;20524;-65
2023/03/08 09:02:59;;;;;;;0.00;0.00;;;3.10;84.90;;;;;;5068530;28;20040;-66
2023/03/08 09:05:24;;;;;;;0.15;0.15;;;3.10;84.90;;;;;;5056424;28;20033;-66
2023/03/08 09:07:54;;;;;;;0.00;0.00;;;3.10;84.90;;;;;;5050801;28;20041;-65
2023/03/08 09:10:20;;;;;;;0.00;0.00;;;3.10;84.90;;;;;;5068430;28;20452;-65
2023/03/08 09:12:46;;;;;;;0.00;0.00;;;3.20;84.90;;;;;;5071395;28;20048;-65
2023/03/08 09:15:11;;;;;;;0.00;0.00;;;3.20;84.90;;;;;;5073193;28;20178;-65
2023/03/08 09:17:38;;;;;;;0.00;0.00;;;3.30;84.90;;;;;;5050175;28;20499;-64
2023/03/08 09:20:05;;;;;;;0.00;0.00;;;3.30;84.80;;;;;;5068449;28;20057;-64
2023/03/08 09:22:31;;;;;;;0.00;0.00;;;3.30;84.80;;;;;;5068474;28;20162;-65
2023/03/08 09:24:57;;;;;;;0.00;0.00;;;3.30;84.60;;;;;;5050886;28;20501;-65
2023/03/08 09:27:22;;;;;;;0.10;0.10;;;3.30;84.70;;;;;;5068922;28;20167;-65
2023/03/08 09:29:48;;;;;;;0.00;0.00;;;3.40;84.70;;;;;;5088624;28;20040;-65
2023/03/08 09:32:13;;;;;;;0.00;0.00;;;3.50;84.80;;;;;;5075527;28;20044;-65
2023/03/08 09:34:39;;;;;;;0.00;0.00;;;3.50;84.80;;;;;;5068553;28;20141;-66
2023/03/08 09:37:07;;;;;;;0.00;0.00;;;3.50;84.80;;;;;;5070530;28;20135;-67
2023/03/08 09:39:33;;;;;;;0.08;0.08;;;3.80;86.20;;;;;;5068473;28;20377;-65
2023/03/08 09:42:01;;;;;;;0.00;0.00;;;3.90;85.30;;;;;;5067172;28;20047;-64
2023/03/08 09:44:44;;;;;;;0.00;0.00;;;3.90;85.20;;;;;;5066869;28;20055;-66
2023/03/08 09:47:28;;;;;;;0.00;0.00;;;3.90;85.00;;;;;;5066140;28;20178;-64
2023/03/08 09:50:03;;;;;;;0.00;0.00;;;3.90;84.90;;;;;;5064311;28;20037;-65
2023/03/08 09:52:33;;;;;;;0.05;0.05;;;4.10;85.10;;;;;;5085303;28;20044;-64
2023/03/08 09:55:01;;;;;;;0.00;0.00;;;4.10;85.00;;;;;;5087824;28;20051;-64
2023/03/08 09:57:36;;;;;;;0.00;0.00;;;4.20;85.00;;;;;;5088978;28;20052;-64
2023/03/08 10:00:10;;;;;;;0.00;0.00;;;4.30;84.90;;;;;;5088839;28;20044;-64
2023/03/08 10:02:42;;;;;;;0.00;0.00;;;4.30;84.70;;;;;;5088974;28;20642;-65
2023/03/08 10:05:38;;;;;;;0.00;0.00;;;4.30;84.70;;;;;;5092225;28;20047;-63
2023/03/08 10:08:10;;;;;;;0.00;0.00;;;4.50;84.60;;;;;;5074469;28;20569;-63
2023/03/08 10:10:42;;;;;;;0.10;0.10;;;4.50;84.40;;;;;;5072109;28;20083;-63
2023/03/08 10:13:26;;;;;;;0.00;0.00;;;4.60;84.30;;;;;;5072222;28;20566;-63
2023/03/08 10:16:09;;;;;;;0.00;0.00;;;4.60;84.30;;;;;;5071347;28;20601;-62
2023/03/08 10:18:51;;;;;;;0.00;0.00;;;4.80;84.10;;;;;;5072033;28;20056;-63
2023/03/08 10:21:20;;;;;;;0.00;0.00;;;4.90;84.00;;;;;;5077430;28;20043;-64
2023/03/08 10:23:49;;;;;;;0.00;0.00;;;5.10;83.90;;;;;;5071198;28;20519;-65
2023/03/08 10:26:18;;;;;;;0.00;0.00;;;5.10;83.50;;;;;;5054621;28;20045;-64
2023/03/08 10:28:44;;;;;;;0.00;0.00;;;5.20;83.30;;;;;;5071449;28;20071;-64
2023/03/08 10:31:24;;;;;;;0.00;0.00;;;5.30;82.70;;;;;;5071766;28;20074;-64
2023/03/08 10:34:05;;;;;;;0.00;0.00;;;5.30;82.20;;;;;;5071636;28;20037;-64
2023/03/08 10:36:31;;;;;;;0.00;0.00;;;5.40;81.80;;;;;;5071027;28;20045;-64
2023/03/08 10:39:04;;;;;;;0.00;0.00;;;5.40;81.00;;;;;;5071901;28;20094;-64
2023/03/08 10:41:35;;;;;;;0.00;0.00;;;5.50;80.50;;;;;;5053338;28;20051;-64
2023/03/08 10:44:01;;;;;;;0.00;0.00;;;5.50;79.40;;;;;;5071643;28;20040;-64
2023/03/08 10:46:30;;;;;;;0.00;0.00;;;5.60;79.50;;;;;;5071795;28;20051;-65
2023/03/08 10:49:08;;;;;;;0.00;0.00;;;5.60;79.60;;;;;;5070435;28;20451;-64
2023/03/08 10:51:33;;;;;;;0.00;0.00;;;5.70;79.90;;;;;;5061698;28;20076;-65
2023/03/08 10:54:04;;;;;;;0.00;0.00;;;5.70;79.80;;;;;;5053284;28;20044;-65
2023/03/08 10:56:30;;;;;;;0.00;0.00;;;5.80;79.60;;;;;;5073968;28;20123;-65
2023/03/08 10:58:57;;;;;;;0.00;0.00;;;5.70;79.20;;;;;;5052580;28;20123;-65
2023/03/08 11:01:48;;;;;;;0.00;0.00;;;5.80;79.80;;;;;;5062056;28;20776;-66
2023/03/08 11:04:17;;;;;;;0.00;0.00;;;5.80;78.80;;;;;;5062217;28;20040;-65
2023/03/08 11:06:42;;;;;;;0.00;0.00;;;5.80;78.90;;;;;;5073643;28;20045;-64
2023/03/08 11:09:37;;;;;;;0.00;0.00;;;5.80;78.60;;;;;;5070898;28;20055;-63
2023/03/08 11:12:03;;;;;;;0.00;0.00;;;5.80;79.00;;;;;;5043207;28;20413;-62
2023/03/08 11:14:30;;;;;;;0.00;0.00;;;5.90;78.80;;;;;;5069471;28;20032;-63
2023/03/08 11:17:13;;;;;;;0.00;0.00;;;5.90;78.70;;;;;;5069487;28;20049;-63
2023/03/08 11:20:10;;;;;;;0.00;0.00;;;6.00;78.40;;;;;;5052515;28;20044;-63
2023/03/08 11:22:52;;;;;;;0.22;0.22;;;6.10;78.20;;;;;;5070659;28;20139;-63
2023/03/08 11:25:39;;;;;;;0.00;0.00;;;6.10;77.80;;;;;;5062019;28;20231;-65
2023/03/08 11:28:41;;;;;;;0.00;0.00;;;6.10;77.00;;;;;;5067613;28;20033;-65
2023/03/08 11:32:02;;;;;;;0.00;0.00;;;6.10;76.60;;;;;;5066785;28;20044;-64
2023/03/08 11:35:12;;;;;;;0.00;0.00;;;6.10;76.60;;;;;;5039366;28;20084;-65
2023/03/08 11:38:01;;;;;;;0.00;0.00;;;6.00;73.30;;;;;;5019562;28;20139;-66
2023/03/08 11:40:55;;;;;;;0.00;0.00;;;5.90;72.70;;;;;;5079574;28;20052;-65
2023/03/08 11:43:40;;;;;;;0.00;0.00;;;5.90;73.40;;;;;;5066351;28;20048;-65
2023/03/08 11:46:18;;;;;;;0.00;0.00;;;5.90;73.10;;;;;;5068953;28;20044;-63
2023/03/08 11:49:18;;;;;;;0.00;0.00;;;6.00;73.20;;;;;;5066488;28;20055;-64
2023/03/08 11:51:53;;;;;;;0.00;0.00;;;6.00;74.00;;;;;;5065197;28;20090;-65
2023/03/08 11:54:31;;;;;;;0.00;0.00;;;6.10;74.00;;;;;;5068339;28;20040;-65
2023/03/08 11:56:59;;;;;;;0.00;0.00;;;6.20;74.60;;;;;;5067981;28;20083;-65
2023/03/08 11:59:34;;;;;;;0.00;0.00;;;6.20;74.00;;;;;;5069220;28;20050;-65
2023/03/08 12:02:06;;;;;;;0.00;0.00;;;6.20;73.30;;;;;;5068651;28;20511;-65
2023/03/08 12:04:35;;;;;;;0.00;0.00;;;6.20;72.90;;;;;;5069950;28;20048;-65
2023/03/08 12:07:08;;;;;;;0.00;0.00;;;6.20;72.70;;;;;;5069285;28;20080;-65
2023/03/08 12:09:40;;;;;;;0.00;0.00;;;6.20;73.00;;;;;;5069891;28;20453;-65
2023/03/08 12:12:25;;;;;;;0.00;0.00;;;6.30;72.60;;;;;;5067173;28;20119;-65
2023/03/08 12:14:59;;;;;;;0.00;0.00;;;6.30;73.20;;;;;;5066181;28;20047;-65
2023/03/08 12:17:27;;;;;;;0.00;0.00;;;6.40;72.70;;;;;;5067256;28;20120;-65
2023/03/08 12:19:54;;;;;;;0.00;0.00;;;6.40;72.30;;;;;;5063231;28;20047;-65
2023/03/08 12:22:43;;;;;;;0.00;0.00;;;6.40;71.30;;;;;;5049343;28;20102;-65
2023/03/08 12:25:20;;;;;;;0.00;0.00;;;6.40;71.70;;;;;;5068286;28;20053;-65
2023/03/08 12:28:02;;;;;;;0.00;0.00;;;6.50;71.60;;;;;;5065384;28;20044;-65
2023/03/08 12:30:46;;;;;;;0.00;0.00;;;6.40;69.80;;;;;;5069100;28;20124;-65
2023/03/08 12:33:14;;;;;;;0.00;0.00;;;6.40;69.60;;;;;;5052050;28;20771;-65
2023/03/08 12:36:12;;;;;;;0.00;0.00;;;6.40;70.00;;;;;;5069319;28;20500;-65
2023/03/08 12:38:45;;;;;;;0.00;0.00;;;6.40;71.40;;;;;;5034618;28;20049;-65
2023/03/08 12:41:22;;;;;;;0.00;0.00;;;6.40;71.10;;;;;;5068967;28;20048;-65
2023/03/08 12:44:02;;;;;;;0.35;0.35;;;6.40;70.70;;;;;;5055804;28;20047;-65
2023/03/08 12:46:42;;;;;;;0.00;0.00;;;6.20;68.70;;;;;;5068873;28;20075;-65
2023/03/08 12:49:20;;;;;;;0.00;0.00;;;6.10;67.30;;;;;;5070712;28;20043;-65
2023/03/08 12:52:20;;;;;;;0.00;0.00;;;6.10;68.60;;;;;;5068511;28;20071;-63
2023/03/08 12:55:04;;;;;;;0.00;0.00;;;6.10;68.90;;;;;;5047860;28;20052;-63
2023/03/08 12:57:41;;;;;;;0.00;0.00;;;6.00;69.00;;;;;;5059422;28;20098;-63
2023/03/08 13:00:30;;;;;;;0.10;0.10;;;6.00;69.20;;;;;;5063124;28;20123;-63
2023/03/08 13:03:23;;;;;;;0.00;0.00;;;6.10;70.30;;;;;;5065555;28;20119;-63
2023/03/08 13:05:49;;;;;;;;;;;6.10;70.10;;;;;;5068085;28;20045;-63
2023/03/08 13:08:17;;;;;;;0.00;0.00;;;6.00;70.70;;;;;;5066672;28;19928;-61
2023/03/08 13:10:49;;;;;;;0.00;0.00;;;5.90;68.50;;;;;;5063605;28;20581;-62